createdAt,value
2018-02-15T00:00:04.230Z,64.81
2018-02-15T00:01:04.189Z,63.54
2018-02-15T00:02:57.008Z,65.28
2018-02-15T00:03:56.980Z,64.71
2018-02-15T00:05:49.815Z,66.32
2018-02-15T00:06:49.776Z,64.90
2018-02-15T00:08:42.600Z,64.04
2018-02-15T00:09:42.636Z,66.80
2018-02-15T00:11:35.415Z,62.34
2018-02-15T00:12:35.373Z,61.87
2018-02-15T00:14:28.196Z,61.68
2018-02-15T00:15:28.167Z,63.48
2018-02-15T00:17:21.004Z,65.37
2018-02-15T00:18:20.965Z,66.32
2018-02-15T00:20:13.787Z,63.29
2018-02-15T00:21:13.759Z,63.20
2018-02-15T00:23:07.162Z,60.83
2018-02-15T00:24:07.049Z,62.82
2018-02-15T00:25:59.872Z,66.60
2018-02-15T00:26:59.847Z,62.91
2018-02-15T00:28:52.680Z,66.89
2018-02-15T00:29:52.638Z,65.00
2018-02-15T00:31:45.458Z,63.10
2018-02-15T00:32:45.429Z,62.62
2018-02-15T00:34:38.757Z,61.96
2018-02-15T00:35:38.717Z,63.76
2018-02-15T00:37:31.541Z,63.57
2018-02-15T00:38:31.511Z,63.76
2018-02-15T00:40:24.349Z,64.23
2018-02-15T00:41:24.306Z,61.30
2018-02-15T00:43:17.225Z,61.77
2018-02-15T00:44:17.100Z,62.24
2018-02-15T00:46:09.933Z,61.02
2018-02-15T00:47:09.893Z,61.30
2018-02-15T00:49:02.714Z,64.81
2018-02-15T00:50:02.683Z,61.87
2018-02-15T00:51:55.519Z,60.25
2018-02-15T00:52:55.479Z,61.11
2018-02-15T00:54:48.298Z,61.40
2018-02-15T00:55:48.270Z,61.77
2018-02-15T00:57:41.115Z,64.52
2018-02-15T00:58:41.067Z,62.34
2018-02-15T01:00:33.885Z,61.02
2018-02-15T01:01:33.859Z,62.53
2018-02-15T01:03:27.200Z,64.90
2018-02-15T01:04:27.161Z,67.49
2018-02-15T01:06:19.979Z,64.17
2018-02-15T01:07:19.954Z,61.14
2018-02-15T01:09:12.787Z,59.50
2018-02-15T01:10:12.743Z,61.77
2018-02-15T01:12:05.567Z,58.65
2018-02-15T01:13:05.544Z,64.90
2018-02-15T01:14:58.374Z,63.57
2018-02-15T01:15:58.333Z,64.71
2018-02-15T01:17:51.647Z,62.53
2018-02-15T01:18:51.619Z,59.97
2018-02-15T01:20:44.950Z,61.58
2018-02-15T01:21:44.908Z,59.41
2018-02-15T01:23:37.735Z,58.74
2018-02-15T01:24:37.709Z,61.58
2018-02-15T01:26:31.046Z,61.30
2018-02-15T01:27:31.006Z,59.50
2018-02-15T01:29:23.821Z,60.35
2018-02-15T01:30:23.795Z,59.12
2018-02-15T01:32:16.645Z,58.55
2018-02-15T01:33:16.594Z,61.49
2018-02-15T01:35:09.413Z,61.21
2018-02-15T01:36:09.386Z,60.25
2018-02-15T01:38:02.221Z,60.25
2018-02-15T01:39:02.180Z,59.22
2018-02-15T01:40:55.505Z,62.91
2018-02-15T01:41:55.478Z,61.58
2018-02-15T01:43:48.317Z,65.88
2018-02-15T01:44:48.274Z,61.02
2018-02-15T01:46:41.095Z,60.86
2018-02-15T01:47:41.068Z,59.22
2018-02-15T01:49:34.400Z,60.25
2018-02-15T01:50:34.360Z,59.50
2018-02-15T01:52:27.180Z,60.25
2018-02-15T01:53:27.151Z,61.87
2018-02-15T01:55:19.993Z,59.97
2018-02-15T01:56:19.947Z,59.66
2018-02-15T01:58:12.778Z,61.02
2018-02-15T01:59:12.750Z,60.64
2018-02-15T02:01:05.586Z,61.02
2018-02-15T02:02:05.544Z,63.95
2018-02-15T02:03:58.369Z,60.06
2018-02-15T02:04:58.341Z,60.73
2018-02-15T02:06:51.212Z,59.88
2018-02-15T02:07:51.131Z,60.35
2018-02-15T02:09:43.957Z,59.59
2018-02-15T02:10:43.929Z,59.03
2018-02-15T02:12:37.258Z,61.58
2018-02-15T02:13:37.218Z,60.73
2018-02-15T02:15:30.037Z,61.58
2018-02-15T02:16:30.014Z,65.59
2018-02-15T02:18:22.850Z,64.08
2018-02-15T02:19:22.814Z,63.04
2018-02-15T02:21:15.629Z,61.80
2018-02-15T02:22:15.605Z,60.57
2018-02-15T02:24:08.440Z,61.11
2018-02-15T02:25:08.396Z,61.02
2018-02-15T02:27:01.216Z,58.93
2018-02-15T02:28:01.192Z,59.41
2018-02-15T02:29:54.041Z,59.50
2018-02-15T02:30:53.985Z,59.12
2018-02-15T02:32:46.822Z,61.96
2018-02-15T02:33:46.791Z,62.72
2018-02-15T02:35:39.626Z,60.73
2018-02-15T02:36:39.585Z,65.97
2018-02-15T02:38:32.407Z,63.04
2018-02-15T02:39:32.381Z,63.42
2018-02-15T02:41:25.221Z,59.41
2018-02-15T02:42:25.178Z,60.92
2018-02-15T02:44:18.488Z,60.86
2018-02-15T02:45:18.465Z,60.38
2018-02-15T02:47:11.802Z,60.76
2018-02-15T02:48:11.763Z,60.38
2018-02-15T02:50:04.589Z,59.44
2018-02-15T02:51:04.559Z,60.28
2018-02-15T02:52:57.391Z,61.14
2018-02-15T02:53:57.352Z,61.05
2018-02-15T02:55:50.174Z,61.14
2018-02-15T02:56:50.150Z,60.76
2018-02-15T02:58:43.017Z,61.05
2018-02-15T02:59:42.946Z,60.28
2018-02-15T03:01:35.764Z,60.47
2018-02-15T03:02:35.737Z,60.86
2018-02-15T03:04:29.078Z,59.53
2018-02-15T03:05:29.040Z,58.48
2018-02-15T03:07:21.855Z,57.32
2018-02-15T03:08:21.825Z,61.90
2018-02-15T03:10:15.169Z,59.05
2018-02-15T03:11:15.128Z,59.12
2018-02-15T03:13:07.952Z,59.81
2018-02-15T03:14:07.926Z,60.00
2018-02-15T03:16:00.762Z,58.77
2018-02-15T03:17:00.721Z,57.98
2018-02-15T03:18:53.554Z,61.14
2018-02-15T03:19:53.527Z,61.52
2018-02-15T03:21:46.364Z,59.63
2018-02-15T03:22:46.319Z,58.96
2018-02-15T03:24:39.142Z,57.70
2018-02-15T03:25:39.117Z,60.73
2018-02-15T03:27:31.952Z,60.28
2018-02-15T03:28:31.912Z,60.57
2018-02-15T03:30:24.736Z,58.86
2018-02-15T03:31:24.709Z,59.05
2018-02-15T03:33:17.545Z,58.86
2018-02-15T03:34:17.505Z,60.19
2018-02-15T03:36:10.325Z,59.91
2018-02-15T03:37:10.298Z,59.05
2018-02-15T03:39:03.143Z,61.05
2018-02-15T03:40:03.090Z,59.81
2018-02-15T03:41:55.910Z,60.00
2018-02-15T03:42:55.885Z,59.15
2018-02-15T03:44:48.720Z,60.10
2018-02-15T03:45:48.678Z,59.05
2018-02-15T03:47:42.001Z,60.95
2018-02-15T03:48:41.977Z,60.86
2018-02-15T03:50:34.813Z,61.14
2018-02-15T03:51:34.772Z,59.91
2018-02-15T03:53:27.592Z,61.14
2018-02-15T03:54:27.565Z,61.05
2018-02-15T03:56:20.403Z,61.05
2018-02-15T03:57:20.363Z,60.28
2018-02-15T03:59:13.213Z,60.10
2018-02-15T04:00:13.189Z,60.28
2018-02-15T04:02:06.023Z,61.05
2018-02-15T04:03:05.981Z,59.81
2018-02-15T04:04:59.294Z,61.80
2018-02-15T04:05:59.268Z,59.15
2018-02-15T04:07:52.107Z,61.24
2018-02-15T04:08:52.068Z,59.81
2018-02-15T04:10:44.889Z,59.44
2018-02-15T04:11:44.862Z,60.47
2018-02-15T04:13:37.696Z,60.38
2018-02-15T04:14:37.657Z,60.38
2018-02-15T04:16:30.479Z,61.24
2018-02-15T04:17:30.453Z,61.90
2018-02-15T04:19:23.289Z,61.33
2018-02-15T04:20:23.251Z,60.76
2018-02-15T04:22:16.074Z,60.86
2018-02-15T04:23:16.046Z,59.53
2018-02-15T04:25:09.385Z,59.05
2018-02-15T04:26:09.347Z,58.86
2018-02-15T04:28:02.170Z,61.24
2018-02-15T04:29:02.143Z,60.86
2018-02-15T04:30:54.982Z,60.95
2018-02-15T04:31:54.949Z,60.38
2018-02-15T04:33:47.764Z,60.86
2018-02-15T04:34:47.737Z,60.95
2018-02-15T04:36:41.103Z,61.14
2018-02-15T04:37:41.065Z,60.28
2018-02-15T04:39:33.885Z,61.61
2018-02-15T04:40:33.862Z,61.33
2018-02-15T04:42:26.702Z,62.69
2018-02-15T04:43:26.653Z,61.08
2018-02-15T04:45:19.471Z,61.08
2018-02-15T04:46:19.449Z,60.79
2018-02-15T04:48:12.282Z,61.46
2018-02-15T04:49:12.241Z,60.98
2018-02-15T04:51:05.060Z,61.36
2018-02-15T04:52:05.035Z,60.98
2018-02-15T04:53:58.367Z,61.46
2018-02-15T04:54:58.328Z,58.39
2018-02-15T04:56:51.149Z,59.91
2018-02-15T04:57:51.122Z,61.52
2018-02-15T04:59:43.957Z,62.59
2018-02-15T05:00:43.919Z,59.53
2018-02-15T05:02:36.740Z,60.86
2018-02-15T05:03:36.711Z,60.28
2018-02-15T05:05:29.552Z,60.38
2018-02-15T05:06:29.508Z,61.90
2018-02-15T05:08:22.338Z,60.86
2018-02-15T05:09:22.314Z,60.86
2018-02-15T05:11:15.247Z,60.98
2018-02-15T05:12:15.113Z,62.40
2018-02-15T05:14:08.033Z,60.47
2018-02-15T05:15:07.910Z,62.78
2018-02-15T05:17:00.742Z,62.21
2018-02-15T05:18:00.705Z,61.83
2018-02-15T05:19:54.017Z,61.74
2018-02-15T05:20:53.990Z,61.74
2018-02-15T05:22:46.830Z,61.74
2018-02-15T05:23:46.786Z,62.69
2018-02-15T05:25:39.612Z,64.49
2018-02-15T05:26:39.586Z,64.68
2018-02-15T05:28:32.423Z,63.17
2018-02-15T05:29:32.384Z,63.35
2018-02-15T05:31:25.206Z,61.65
2018-02-15T05:32:25.178Z,61.46
2018-02-15T05:34:18.024Z,61.55
2018-02-15T05:35:17.984Z,62.59
2018-02-15T05:37:10.809Z,61.65
2018-02-15T05:38:10.782Z,60.50
2018-02-15T05:40:04.123Z,63.07
2018-02-15T05:41:04.082Z,64.20
2018-02-15T05:42:56.900Z,65.66
2018-02-15T05:43:56.880Z,64.49
2018-02-15T05:45:49.721Z,61.17
2018-02-15T05:46:49.674Z,64.59
2018-02-15T05:48:42.491Z,66.01
2018-02-15T05:49:42.467Z,65.66
2018-02-15T05:51:35.308Z,66.67
2018-02-15T05:52:35.270Z,64.59
2018-02-15T05:54:28.096Z,62.97
2018-02-15T05:55:28.068Z,64.30
2018-02-15T05:57:20.909Z,64.97
2018-02-15T05:58:20.868Z,64.97
2018-02-15T06:00:14.184Z,65.44
2018-02-15T06:01:14.158Z,66.39
2018-02-15T06:03:06.993Z,67.33
2018-02-15T06:04:06.951Z,64.49
2018-02-15T06:05:59.773Z,69.80
2018-02-15T06:06:59.746Z,69.99
2018-02-15T06:08:52.581Z,71.89
2018-02-15T06:09:52.540Z,70.98
2018-02-15T06:11:45.364Z,70.78
2018-02-15T06:12:45.337Z,69.99
2018-02-15T06:14:38.176Z,70.47
2018-02-15T06:15:38.135Z,72.93
2018-02-15T06:17:31.449Z,69.90
2018-02-15T06:18:31.424Z,72.64
2018-02-15T06:20:24.265Z,72.78
2018-02-15T06:21:24.224Z,74.54
2018-02-15T06:23:17.046Z,72.17
2018-02-15T06:24:17.041Z,72.08
2018-02-15T06:26:09.858Z,72.74
2018-02-15T06:27:09.817Z,72.93
2018-02-15T06:29:02.640Z,72.36
2018-02-15T06:30:02.613Z,72.08
2018-02-15T06:31:55.455Z,73.88
2018-02-15T06:32:55.417Z,73.97
2018-02-15T06:34:48.236Z,71.89
2018-02-15T06:35:48.210Z,73.12
2018-02-15T06:37:41.047Z,70.18
2018-02-15T06:38:41.007Z,71.80
2018-02-15T06:40:34.324Z,73.50
2018-02-15T06:41:34.297Z,72.64
2018-02-15T06:43:27.136Z,70.28
2018-02-15T06:44:27.095Z,70.94
2018-02-15T06:46:19.919Z,73.12
2018-02-15T06:47:19.892Z,73.41
2018-02-15T06:49:12.734Z,73.97
2018-02-15T06:50:12.694Z,72.17
2018-02-15T06:52:06.012Z,72.36
2018-02-15T06:53:05.986Z,73.22
2018-02-15T06:54:58.826Z,75.31
2018-02-15T06:55:58.786Z,75.21
2018-02-15T06:57:51.831Z,73.79
2018-02-15T06:58:51.804Z,74.92
2018-02-15T07:00:44.645Z,75.11
2018-02-15T07:01:44.606Z,75.96
2018-02-15T07:03:37.428Z,75.21
2018-02-15T07:04:37.403Z,77.77
2018-02-15T07:06:30.732Z,79.85
2018-02-15T07:07:30.730Z,79.28
2018-02-15T07:09:24.024Z,79.95
2018-02-15T07:10:23.992Z,79.47
2018-02-15T07:12:16.826Z,79.85
2018-02-15T07:13:16.785Z,83.08
2018-02-15T07:15:10.110Z,82.23
2018-02-15T07:16:10.099Z,84.41
2018-02-15T07:18:02.919Z,86.40
2018-02-15T07:19:02.879Z,87.63
2018-02-15T07:20:55.704Z,87.35
2018-02-15T07:21:55.677Z,88.63
2018-02-15T07:23:48.515Z,93.75
2018-02-15T07:24:48.471Z,94.08
2018-02-15T07:26:41.308Z,95.55
2018-02-15T07:27:41.327Z,97.16
2018-02-15T07:29:34.118Z,99.99
2018-02-15T07:30:34.075Z,99.99
2018-02-15T07:32:27.401Z,99.99
2018-02-15T07:33:27.375Z,99.99
2018-02-15T07:35:20.702Z,99.99
2018-02-15T07:36:20.669Z,99.99
2018-02-15T07:38:13.492Z,99.99
2018-02-15T07:39:13.463Z,99.99
2018-02-15T07:41:06.297Z,99.99
2018-02-15T07:42:06.258Z,99.99
2018-02-15T07:43:59.078Z,99.99
2018-02-15T07:44:59.054Z,99.99
2018-02-15T07:46:51.885Z,99.99
2018-02-15T07:47:51.847Z,99.99
2018-02-15T07:49:45.162Z,99.99
2018-02-15T07:50:45.137Z,99.99
2018-02-15T07:52:37.979Z,99.99
2018-02-15T07:53:37.930Z,99.99
2018-02-15T07:55:30.750Z,99.99
2018-02-15T07:56:30.726Z,99.99
2018-02-15T07:58:23.560Z,99.99
2018-02-15T07:59:23.518Z,99.99
2018-02-15T08:01:16.441Z,99.99
2018-02-15T08:02:16.317Z,99.99
2018-02-15T08:04:09.159Z,99.99
2018-02-15T08:05:09.119Z,99.99
2018-02-15T08:07:01.940Z,99.99
2018-02-15T08:08:01.915Z,99.99
2018-02-15T08:09:54.752Z,99.99
2018-02-15T08:10:54.712Z,99.99
2018-02-15T08:12:47.575Z,99.99
2018-02-15T08:13:47.511Z,99.99
2018-02-15T08:15:40.348Z,99.99
2018-02-15T08:16:40.306Z,99.99
2018-02-15T08:18:33.126Z,99.99
2018-02-15T08:19:33.098Z,99.99
2018-02-15T08:21:25.936Z,99.99
2018-02-15T08:22:25.899Z,99.99
2018-02-15T08:24:18.718Z,99.99
2018-02-15T08:25:18.690Z,99.99
2018-02-15T08:27:11.538Z,99.99
2018-02-15T08:28:11.494Z,99.99
2018-02-15T08:30:04.807Z,99.99
2018-02-15T08:31:04.780Z,99.99
2018-02-15T08:32:57.617Z,99.99
2018-02-15T08:33:57.575Z,99.99
2018-02-15T08:35:50.395Z,99.99
2018-02-15T08:36:50.370Z,99.99
2018-02-15T08:38:43.700Z,99.99
2018-02-15T08:39:43.661Z,99.99
2018-02-15T08:41:36.486Z,99.99
2018-02-15T08:42:36.460Z,99.99
2018-02-15T08:44:29.788Z,99.99
2018-02-15T08:45:29.754Z,99.99
2018-02-15T08:47:22.572Z,99.99
2018-02-15T08:48:22.545Z,99.99
2018-02-15T08:50:15.874Z,99.99
2018-02-15T08:51:15.834Z,99.99
2018-02-15T08:53:08.655Z,99.99
2018-02-15T08:54:08.630Z,99.99
2018-02-15T08:56:01.470Z,99.99
2018-02-15T08:57:01.430Z,99.99
2018-02-15T08:58:54.248Z,99.99
2018-02-15T08:59:54.222Z,99.99
2018-02-15T09:01:47.067Z,99.99
2018-02-15T09:02:47.016Z,99.99
2018-02-15T09:04:39.851Z,99.99
2018-02-15T09:05:39.826Z,99.99
2018-02-15T09:07:33.157Z,99.99
2018-02-15T09:08:33.116Z,99.99
2018-02-15T09:10:25.938Z,99.99
2018-02-15T09:11:25.911Z,99.99
2018-02-15T09:13:18.747Z,99.99
2018-02-15T09:14:18.707Z,99.99
2018-02-15T09:16:11.528Z,99.99
2018-02-15T09:17:11.501Z,99.99
2018-02-15T09:19:04.343Z,99.99
2018-02-15T09:20:04.303Z,99.99
2018-02-15T09:21:57.124Z,99.99
2018-02-15T09:22:57.099Z,99.99
2018-02-15T09:24:49.937Z,99.99
2018-02-15T09:25:49.896Z,99.99
2018-02-15T09:27:42.728Z,99.99
2018-02-15T09:28:42.699Z,99.99
2018-02-15T09:30:35.539Z,99.99
2018-02-15T09:31:35.498Z,99.99
2018-02-15T09:33:28.323Z,99.99
2018-02-15T09:34:28.299Z,99.99
2018-02-15T09:36:21.630Z,99.99
2018-02-15T09:37:21.590Z,99.99
2018-02-15T09:39:14.415Z,99.99
2018-02-15T09:40:14.389Z,99.99
2018-02-15T09:42:07.397Z,99.99
2018-02-15T09:43:07.190Z,99.99
2018-02-15T09:45:00.019Z,99.99
2018-02-15T09:45:59.991Z,99.99
2018-02-15T09:47:52.835Z,99.99
2018-02-15T09:48:52.791Z,99.99
2018-02-15T09:50:45.621Z,99.99
2018-02-15T09:51:45.595Z,99.99
2018-02-15T09:53:38.439Z,99.99
2018-02-15T09:54:38.391Z,99.99
2018-02-15T09:56:31.216Z,99.99
2018-02-15T09:57:31.192Z,99.99
2018-02-15T09:59:24.028Z,99.99
2018-02-15T10:00:23.991Z,99.99
2018-02-15T10:02:17.314Z,99.99
2018-02-15T10:03:17.290Z,99.99
2018-02-15T10:05:10.130Z,99.99
2018-02-15T10:06:10.091Z,99.99
2018-02-15T10:08:02.913Z,99.99
2018-02-15T10:09:02.886Z,99.99
2018-02-15T10:10:55.733Z,99.99
2018-02-15T10:11:55.686Z,99.99
2018-02-15T10:13:48.509Z,99.99
2018-02-15T10:14:48.487Z,99.99
2018-02-15T10:16:41.331Z,99.99
2018-02-15T10:17:41.284Z,99.99
2018-02-15T10:19:34.104Z,99.99
2018-02-15T10:20:34.080Z,99.99
2018-02-15T10:22:26.927Z,99.99
2018-02-15T10:23:26.889Z,99.99
2018-02-15T10:25:19.718Z,99.99
2018-02-15T10:26:19.690Z,99.99
2018-02-15T10:28:12.530Z,99.99
2018-02-15T10:29:12.488Z,99.99
2018-02-15T10:31:05.310Z,99.99
2018-02-15T10:32:05.286Z,99.99
2018-02-15T10:33:58.126Z,99.99
2018-02-15T10:34:58.085Z,99.99
2018-02-15T10:36:50.909Z,99.99
2018-02-15T10:37:50.884Z,99.99
2018-02-15T10:39:43.720Z,99.99
2018-02-15T10:40:43.682Z,99.99
2018-02-15T10:42:36.505Z,99.99
2018-02-15T10:43:36.480Z,99.99
2018-02-15T10:45:29.812Z,99.99
2018-02-15T10:46:29.774Z,99.99
2018-02-15T10:48:22.596Z,99.99
2018-02-15T10:49:22.570Z,99.99
2018-02-15T10:51:15.410Z,99.99
2018-02-15T10:52:15.367Z,99.99
2018-02-15T10:54:08.192Z,99.99
2018-02-15T10:55:08.165Z,99.99
2018-02-15T10:57:01.006Z,99.99
2018-02-15T10:58:00.965Z,99.99
2018-02-15T10:59:53.788Z,99.99
2018-02-15T11:00:53.763Z,99.99
2018-02-15T11:02:46.603Z,99.99
2018-02-15T11:03:46.564Z,99.99
2018-02-15T11:05:39.386Z,96.36
2018-02-15T11:06:39.361Z,97.45
2018-02-15T11:08:32.203Z,92.23
2018-02-15T11:09:32.163Z,97.50
2018-02-15T11:11:24.986Z,95.50
2018-02-15T11:12:24.960Z,99.99
2018-02-15T11:14:18.290Z,98.73
2018-02-15T11:15:18.252Z,96.17
2018-02-15T11:17:11.082Z,98.54
2018-02-15T11:18:11.063Z,97.59
2018-02-15T11:20:03.897Z,99.99
2018-02-15T11:21:03.858Z,99.99
2018-02-15T11:22:56.685Z,97.21
2018-02-15T11:23:56.675Z,93.65
2018-02-15T11:25:49.496Z,92.80
2018-02-15T11:26:49.456Z,91.19
2018-02-15T11:28:42.279Z,88.82
2018-02-15T11:29:42.253Z,89.77
2018-02-15T11:31:35.091Z,88.06
2018-02-15T11:32:35.049Z,87.16
2018-02-15T11:34:27.877Z,83.75
2018-02-15T11:35:27.852Z,85.74
2018-02-15T11:37:20.692Z,88.30
2018-02-15T11:38:20.648Z,87.21
2018-02-15T11:40:13.471Z,87.35
2018-02-15T11:41:13.448Z,84.70
2018-02-15T11:43:06.289Z,89.15
2018-02-15T11:44:06.245Z,84.61
2018-02-15T11:45:59.069Z,93.37
2018-02-15T11:46:59.042Z,97.35
2018-02-15T11:48:51.878Z,89.96
2018-02-15T11:49:51.843Z,91.85
2018-02-15T11:51:44.664Z,83.66
2018-02-15T11:52:44.636Z,86.55
2018-02-15T11:54:37.482Z,87.68
2018-02-15T11:55:37.435Z,89.11
2018-02-15T11:57:30.260Z,95.07
2018-02-15T11:58:30.238Z,96.97
2018-02-15T12:00:23.074Z,92.90
2018-02-15T12:01:23.035Z,92.80
2018-02-15T12:03:15.856Z,90.34
2018-02-15T12:04:15.831Z,94.13
2018-02-15T12:06:08.670Z,96.92
2018-02-15T12:07:08.627Z,99.99
2018-02-15T12:09:01.452Z,99.99
2018-02-15T12:10:01.428Z,99.99
2018-02-15T12:11:54.262Z,99.99
2018-02-15T12:12:54.223Z,99.99
2018-02-15T12:14:47.048Z,99.99
2018-02-15T12:15:47.022Z,97.54
2018-02-15T12:17:39.866Z,99.99
2018-02-15T12:18:39.821Z,99.99
2018-02-15T12:20:32.650Z,99.99
2018-02-15T12:21:32.626Z,99.99
2018-02-15T12:23:25.465Z,99.99
2018-02-15T12:24:25.421Z,99.99
2018-02-15T12:26:18.251Z,99.77
2018-02-15T12:27:18.226Z,99.99
2018-02-15T12:29:11.555Z,99.99
2018-02-15T12:30:11.517Z,99.99
2018-02-15T12:32:04.345Z,99.99
2018-02-15T12:33:04.318Z,99.99
2018-02-15T12:34:57.161Z,99.99
2018-02-15T12:35:57.121Z,99.99
2018-02-15T12:37:50.438Z,99.99
2018-02-15T12:38:50.414Z,99.99
2018-02-15T12:40:43.256Z,96.41
2018-02-15T12:41:43.217Z,96.92
2018-02-15T12:43:36.046Z,99.72
2018-02-15T12:44:36.017Z,96.69
2018-02-15T12:46:28.855Z,95.07
2018-02-15T12:47:28.816Z,98.21
2018-02-15T12:49:21.640Z,93.08
2018-02-15T12:50:21.613Z,98.73
2018-02-15T12:52:14.454Z,99.44
2018-02-15T12:53:14.418Z,99.20
2018-02-15T12:55:07.239Z,96.88
2018-02-15T12:56:07.218Z,98.07
2018-02-15T12:58:00.054Z,92.99
2018-02-15T12:59:00.016Z,94.70
2018-02-15T13:00:52.838Z,95.36
2018-02-15T13:01:52.813Z,94.51
2018-02-15T13:03:46.190Z,96.17
2018-02-15T13:04:46.105Z,99.30
2018-02-15T13:06:39.884Z,99.49
2018-02-15T13:07:39.844Z,99.99
2018-02-15T13:09:32.683Z,99.99
2018-02-15T13:10:32.642Z,99.99
2018-02-15T13:12:25.462Z,99.99
2018-02-15T13:13:25.437Z,98.44
2018-02-15T13:15:18.276Z,98.73
2018-02-15T13:16:18.236Z,93.94
2018-02-15T13:18:11.063Z,90.91
2018-02-15T13:19:11.038Z,92.90
2018-02-15T13:21:03.876Z,92.99
2018-02-15T13:22:03.835Z,93.84
2018-02-15T13:23:56.656Z,94.08
2018-02-15T13:24:56.631Z,95.50
2018-02-15T13:26:49.467Z,91.09
2018-02-15T13:27:49.428Z,86.93
2018-02-15T13:29:42.252Z,88.16
2018-02-15T13:30:42.232Z,87.02
2018-02-15T13:32:35.072Z,90.91
2018-02-15T13:33:35.022Z,91.00
2018-02-15T13:35:27.847Z,87.59
2018-02-15T13:36:27.821Z,92.18
2018-02-15T13:38:20.658Z,93.13
2018-02-15T13:39:20.618Z,93.61
2018-02-15T13:41:13.444Z,93.04
2018-02-15T13:42:13.421Z,98.92
2018-02-15T13:44:06.260Z,99.54
2018-02-15T13:45:06.214Z,99.63
2018-02-15T13:46:59.044Z,96.36
2018-02-15T13:47:59.018Z,99.16
2018-02-15T13:49:51.862Z,99.99
2018-02-15T13:50:51.820Z,99.99
2018-02-15T13:52:44.640Z,98.68
2018-02-15T13:53:44.618Z,97.59
2018-02-15T13:55:37.457Z,96.36
2018-02-15T13:56:37.416Z,99.99
2018-02-15T13:58:30.242Z,99.99
2018-02-15T13:59:30.222Z,98.73
2018-02-15T14:01:23.096Z,94.65
2018-02-15T14:02:23.017Z,95.41
2018-02-15T14:04:15.844Z,92.18
2018-02-15T14:05:15.820Z,94.56
2018-02-15T14:07:08.660Z,97.64
2018-02-15T14:08:08.621Z,99.54
2018-02-15T14:10:01.446Z,99.99
2018-02-15T14:11:01.420Z,97.74
2018-02-15T14:12:54.289Z,99.99
2018-02-15T14:13:54.218Z,99.99
2018-02-15T14:15:47.039Z,99.06
2018-02-15T14:16:47.016Z,98.21
2018-02-15T14:18:39.853Z,99.99
2018-02-15T14:19:39.813Z,99.35
2018-02-15T14:21:32.638Z,99.99
2018-02-15T14:22:32.610Z,99.99
2018-02-15T14:24:25.450Z,99.99
2018-02-15T14:25:25.408Z,99.99
2018-02-15T14:27:18.232Z,99.99
2018-02-15T14:28:18.206Z,99.99
2018-02-15T14:30:11.043Z,99.99
2018-02-15T14:31:11.002Z,99.99
2018-02-15T14:33:03.828Z,99.99
2018-02-15T14:34:03.803Z,99.99
2018-02-15T14:35:56.642Z,99.99
2018-02-15T14:36:56.601Z,98.11
2018-02-15T14:38:49.427Z,99.06
2018-02-15T14:39:49.401Z,99.82
2018-02-15T14:41:42.248Z,99.99
2018-02-15T14:42:42.208Z,99.99
2018-02-15T14:44:35.033Z,99.99
2018-02-15T14:45:35.007Z,99.99
2018-02-15T14:47:27.851Z,96.78
2018-02-15T14:48:27.812Z,95.74
2018-02-15T14:50:20.634Z,98.21
2018-02-15T14:51:20.611Z,97.64
2018-02-15T14:53:13.452Z,99.99
2018-02-15T14:54:13.411Z,99.99
2018-02-15T14:56:06.235Z,99.11
2018-02-15T14:57:06.210Z,99.99
2018-02-15T14:58:59.045Z,99.99
2018-02-15T14:59:59.013Z,99.99
2018-02-15T15:01:51.832Z,99.99
2018-02-15T15:02:51.807Z,99.99
2018-02-15T15:04:44.646Z,99.99
2018-02-15T15:05:44.605Z,99.99
2018-02-15T15:07:37.443Z,97.07
2018-02-15T15:08:37.423Z,99.87
2018-02-15T15:10:30.264Z,99.99
2018-02-15T15:11:30.230Z,99.99
2018-02-15T15:13:23.055Z,99.99
2018-02-15T15:14:23.027Z,99.99
2018-02-15T15:16:16.369Z,99.63
2018-02-15T15:17:16.332Z,98.49
2018-02-15T15:19:09.154Z,96.31
2018-02-15T15:20:09.126Z,96.03
2018-02-15T15:22:01.972Z,97.83
2018-02-15T15:23:01.931Z,99.21
2018-02-15T15:24:54.759Z,96.88
2018-02-15T15:25:54.753Z,98.68
2018-02-15T15:27:48.080Z,99.99
2018-02-15T15:28:48.037Z,99.99
2018-02-15T15:30:40.865Z,99.99
2018-02-15T15:31:40.841Z,99.99
2018-02-15T15:33:33.688Z,99.58
2018-02-15T15:34:33.644Z,99.99
2018-02-15T15:36:26.464Z,99.02
2018-02-15T15:37:26.441Z,98.73
2018-02-15T15:39:19.288Z,99.11
2018-02-15T15:40:19.242Z,97.78
2018-02-15T15:42:12.444Z,93.27
2018-02-15T15:43:12.419Z,95.41
2018-02-15T15:45:05.261Z,97.31
2018-02-15T15:46:05.224Z,99.02
2018-02-15T15:47:58.053Z,99.87
2018-02-15T15:48:58.030Z,95.03
2018-02-15T15:50:51.367Z,93.04
2018-02-15T15:51:51.328Z,94.93
2018-02-15T15:53:44.150Z,91.52
2018-02-15T15:54:44.124Z,93.32
2018-02-15T15:56:36.963Z,93.41
2018-02-15T15:57:36.923Z,95.51
2018-02-15T15:59:29.755Z,93.32
2018-02-15T16:00:29.731Z,91.04
2018-02-15T16:02:22.570Z,93.23
2018-02-15T16:03:22.531Z,93.04
2018-02-15T16:05:15.357Z,92.94
2018-02-15T16:06:15.334Z,94.56
2018-02-15T16:08:08.175Z,92.37
2018-02-15T16:09:08.138Z,94.46
2018-02-15T16:11:00.964Z,92.47
2018-02-15T16:12:00.938Z,91.42
2018-02-15T16:13:53.787Z,87.53
2018-02-15T16:14:53.748Z,88.48
2018-02-15T16:16:46.574Z,88.01
2018-02-15T16:17:46.548Z,90.95
2018-02-15T16:19:39.391Z,93.80
2018-02-15T16:20:39.352Z,88.57
2018-02-15T16:22:32.175Z,87.53
2018-02-15T16:23:32.150Z,88.39
2018-02-15T16:25:24.991Z,87.05
2018-02-15T16:26:24.957Z,87.43
2018-02-15T16:28:17.780Z,87.15
2018-02-15T16:29:17.765Z,88.86
2018-02-15T16:31:10.592Z,91.04
2018-02-15T16:32:10.555Z,92.28
2018-02-15T16:34:03.377Z,91.42
2018-02-15T16:35:03.352Z,92.47
2018-02-15T16:36:56.194Z,93.60
2018-02-15T16:37:56.156Z,91.42
2018-02-15T16:39:49.794Z,91.80
2018-02-15T16:40:49.771Z,91.99
2018-02-15T16:42:42.908Z,90.95
2018-02-15T16:43:42.869Z,91.71
2018-02-15T16:45:35.692Z,91.33
2018-02-15T16:46:35.669Z,88.57
2018-02-15T16:48:28.526Z,86.77
2018-02-15T16:49:28.471Z,86.77
2018-02-15T16:51:21.311Z,85.63
2018-02-15T16:52:21.285Z,88.29
2018-02-15T16:54:14.125Z,88.10
2018-02-15T16:55:14.085Z,88.10
2018-02-15T16:57:06.909Z,87.05
2018-02-15T16:58:06.884Z,87.53
2018-02-15T17:00:00.224Z,88.39
2018-02-15T17:01:00.191Z,87.05
2018-02-15T17:02:53.017Z,91.14
2018-02-15T17:03:52.994Z,93.70
2018-02-15T17:05:45.835Z,89.43
2018-02-15T17:06:45.796Z,92.37
2018-02-15T17:08:38.628Z,92.56
2018-02-15T17:09:38.592Z,93.04
2018-02-15T17:11:31.428Z,90.95
2018-02-15T17:12:31.390Z,91.42
2018-02-15T17:14:24.311Z,94.93
2018-02-15T17:15:24.181Z,93.13
2018-02-15T17:17:17.028Z,93.23
2018-02-15T17:18:16.985Z,93.80
2018-02-15T17:20:09.810Z,93.99
2018-02-15T17:21:09.783Z,93.04
2018-02-15T17:23:02.623Z,92.37
2018-02-15T17:24:02.585Z,92.56
2018-02-15T17:25:55.408Z,93.51
2018-02-15T17:26:55.382Z,92.47
2018-02-15T17:28:48.220Z,93.23
2018-02-15T17:29:48.181Z,93.23
2018-02-15T17:31:41.013Z,93.32
2018-02-15T17:32:40.990Z,94.08
2018-02-15T17:34:33.825Z,91.61
2018-02-15T17:35:33.790Z,93.13
2018-02-15T17:37:27.116Z,93.13
2018-02-15T17:38:27.092Z,91.52
2018-02-15T17:40:20.491Z,92.99
2018-02-15T17:41:20.448Z,91.99
2018-02-15T17:43:13.273Z,93.23
2018-02-15T17:44:13.249Z,92.32
2018-02-15T17:46:06.090Z,93.32
2018-02-15T17:47:06.049Z,92.28
2018-02-15T17:48:58.873Z,92.99
2018-02-15T17:49:58.847Z,93.23
2018-02-15T17:51:51.686Z,94.13
2018-02-15T17:52:51.647Z,88.76
2018-02-15T17:54:44.469Z,94.98
2018-02-15T17:55:44.447Z,93.37
2018-02-15T17:57:37.310Z,92.66
2018-02-15T17:58:37.242Z,87.72
2018-02-15T18:00:30.952Z,91.52
2018-02-15T18:01:30.926Z,92.56
2018-02-15T18:03:24.601Z,91.61
2018-02-15T18:04:24.566Z,90.76
2018-02-15T18:06:17.386Z,87.91
2018-02-15T18:07:17.363Z,90.47
2018-02-15T18:09:10.198Z,89.90
2018-02-15T18:10:10.157Z,88.57
2018-02-15T18:12:02.982Z,88.29
2018-02-15T18:13:02.961Z,88.10
2018-02-15T18:14:56.295Z,90.57
2018-02-15T18:15:56.252Z,87.86
2018-02-15T18:17:49.076Z,91.85
2018-02-15T18:18:49.053Z,92.90
2018-02-15T18:20:41.890Z,93.37
2018-02-15T18:21:41.851Z,92.71
2018-02-15T18:23:34.676Z,91.24
2018-02-15T18:24:34.652Z,92.90
2018-02-15T18:26:27.495Z,89.38
2018-02-15T18:27:27.449Z,92.42
2018-02-15T18:29:21.072Z,90.80
2018-02-15T18:30:21.048Z,92.32
2018-02-15T18:32:13.953Z,91.94